Mc Cormick, South Carolina
Current Conditions -  °F | °C
As of 9:56 AM on Sunday 21 Dec 2014 (Local Time) from KGRD Reporting Station
Overcast Overcast  
Wind Chill: 43°   Ceiling: 3100
Heat Index: 45°   Visibility: 8mi
Dew Point: 39°   Wind: 5mph
Humidity: 80%   Direction: NA
Pressure: 30.28"   Gusts: NA
Location:  33.9076°N, 82.3003°W
Report Text: KGRD 211456Z AUTO VRB04KT 8SM BKN031 OVC050 07/04 A3028 RMK AO2 SLP254 T00720039 53008
Loading
Personal Weather Stations






























Interactive Weather Map New forecast layout! Learn more

10-Day Weather Forecast

Advertisements
Track Severe Weather on mobile